createdAt,value
2022-09-21T00:01:18.749Z,2.85
2022-09-21T00:03:46.595Z,2.65
2022-09-21T00:06:21.778Z,2.70
2022-09-21T00:08:49.490Z,2.47
2022-09-21T00:11:19.741Z,2.63
2022-09-21T00:13:47.759Z,2.80
2022-09-21T00:16:17.172Z,2.78
2022-09-21T00:18:44.090Z,2.85
2022-09-21T00:21:13.975Z,2.88
2022-09-21T00:23:41.503Z,3.00
2022-09-21T00:26:14.751Z,2.60
2022-09-21T00:28:42.228Z,2.35
2022-09-21T00:31:12.418Z,2.63
2022-09-21T00:33:40.978Z,2.47
2022-09-21T00:36:14.053Z,2.67
2022-09-21T00:38:41.540Z,2.88
2022-09-21T00:41:09.902Z,2.78
2022-09-21T00:43:42.662Z,2.70
2022-09-21T00:46:24.117Z,2.85
2022-09-21T00:48:50.974Z,3.10
2022-09-21T00:51:18.459Z,2.67
2022-09-21T00:53:48.754Z,2.78
2022-09-21T00:56:16.011Z,3.28
2022-09-21T00:58:46.708Z,3.03
2022-09-21T01:01:16.632Z,3.25
2022-09-21T01:03:45.781Z,3.20
2022-09-21T01:06:14.341Z,4.03
2022-09-21T01:08:42.093Z,3.22
2022-09-21T01:11:21.240Z,3.75
2022-09-21T01:14:03.875Z,3.38
2022-09-21T01:16:36.722Z,3.20
2022-09-21T01:19:18.233Z,3.45
2022-09-21T01:22:00.919Z,3.10
2022-09-21T01:25:20.643Z,3.30
2022-09-21T01:28:24.844Z,3.45
2022-09-21T01:30:54.147Z,3.60
2022-09-21T01:33:27.412Z,3.08
2022-09-21T01:36:02.006Z,3.45
2022-09-21T01:38:35.668Z,3.53
2022-09-21T01:41:11.352Z,3.22
2022-09-21T01:43:42.383Z,3.03
2022-09-21T01:46:17.493Z,3.35
2022-09-21T01:48:49.589Z,3.42
2022-09-21T01:51:19.964Z,3.33
2022-09-21T01:53:56.119Z,3.30
2022-09-21T01:56:41.711Z,3.13
2022-09-21T01:59:20.572Z,3.03
2022-09-21T02:01:52.053Z,3.55
2022-09-21T02:04:18.970Z,3.03
2022-09-21T02:06:48.861Z,3.20
2022-09-21T02:09:15.910Z,3.58
2022-09-21T02:11:44.869Z,3.45
2022-09-21T02:14:18.216Z,3.97
2022-09-21T02:16:56.389Z,3.40
2022-09-21T02:19:45.143Z,3.65
2022-09-21T02:22:41.164Z,3.33
2022-09-21T02:25:14.176Z,3.22
2022-09-21T02:27:53.039Z,3.40
2022-09-21T02:30:25.400Z,3.38
2022-09-21T02:33:07.061Z,3.70
2022-09-21T02:35:57.433Z,3.50
2022-09-21T02:38:47.084Z,3.10
2022-09-21T02:41:24.754Z,3.90
2022-09-21T02:44:04.013Z,2.90
2022-09-21T02:46:37.458Z,3.00
2022-09-21T02:49:11.216Z,2.78
2022-09-21T02:51:47.150Z,2.55
2022-09-21T02:54:19.027Z,3.08
2022-09-21T02:56:48.764Z,2.92
2022-09-21T02:59:16.688Z,2.70
2022-09-21T03:01:43.790Z,2.90
2022-09-21T03:04:11.196Z,2.60
2022-09-21T03:06:38.016Z,2.63
2022-09-21T03:09:04.861Z,3.20
2022-09-21T03:11:31.536Z,2.80
2022-09-21T03:14:00.306Z,2.78
2022-09-21T03:16:27.166Z,2.70
2022-09-21T03:18:53.845Z,2.80
2022-09-21T03:21:20.956Z,2.70
2022-09-21T03:23:49.880Z,2.97
2022-09-21T03:26:16.852Z,2.90
2022-09-21T03:28:43.976Z,3.38
2022-09-21T03:31:10.701Z,2.97
2022-09-21T03:33:41.081Z,3.17
2022-09-21T03:36:08.348Z,3.20
2022-09-21T03:38:35.056Z,3.20
2022-09-21T03:41:01.783Z,3.40
2022-09-21T03:43:28.453Z,3.75
2022-09-21T03:45:58.012Z,3.80
2022-09-21T03:48:24.810Z,3.90
2022-09-21T03:50:51.669Z,4.20
2022-09-21T03:53:18.346Z,3.50
2022-09-21T03:55:47.254Z,3.90
2022-09-21T03:58:14.672Z,4.20
2022-09-21T04:00:41.797Z,3.80
2022-09-21T04:03:08.739Z,3.78
2022-09-21T04:05:35.506Z,3.95
2022-09-21T04:08:02.477Z,4.03
2022-09-21T04:10:32.811Z,4.28
2022-09-21T04:13:01.350Z,4.20
2022-09-21T04:15:29.569Z,4.30
2022-09-21T04:17:56.736Z,3.90
2022-09-21T04:20:23.817Z,3.85
2022-09-21T04:22:52.802Z,3.95
2022-09-21T04:25:22.065Z,3.47
2022-09-21T04:27:52.589Z,3.72
2022-09-21T04:30:21.499Z,3.88
2022-09-21T04:32:48.268Z,3.90
2022-09-21T04:35:15.070Z,3.67
2022-09-21T04:37:41.906Z,4.00
2022-09-21T04:40:09.461Z,3.80
2022-09-21T04:42:39.113Z,4.03
2022-09-21T04:45:07.335Z,4.40
2022-09-21T04:47:34.008Z,4.55
2022-09-21T04:50:00.677Z,4.15
2022-09-21T04:52:27.326Z,4.10
2022-09-21T04:54:56.428Z,3.80
2022-09-21T04:57:23.267Z,4.15
2022-09-21T04:59:49.953Z,4.28
2022-09-21T05:02:16.623Z,3.80
2022-09-21T05:04:46.399Z,4.00
2022-09-21T05:07:15.809Z,3.63
2022-09-21T05:10:01.135Z,3.58
2022-09-21T05:12:27.891Z,4.13
2022-09-21T05:14:57.197Z,3.60
2022-09-21T05:17:24.401Z,3.83
2022-09-21T05:19:54.041Z,3.75
2022-09-21T05:22:24.449Z,3.83
2022-09-21T05:24:51.332Z,3.80
2022-09-21T05:27:18.154Z,4.47
2022-09-21T05:29:45.172Z,4.53
2022-09-21T05:32:45.444Z,4.10
2022-09-21T05:35:40.324Z,4.32
2022-09-21T05:38:25.468Z,3.90
2022-09-21T05:40:53.338Z,4.47
2022-09-21T05:43:20.903Z,4.80
2022-09-21T05:45:56.653Z,4.22
2022-09-21T05:48:36.208Z,3.95
2022-09-21T05:51:39.495Z,4.22
2022-09-21T05:54:37.933Z,4.03
2022-09-21T05:57:15.378Z,3.50
2022-09-21T05:59:56.910Z,3.80
2022-09-21T06:02:47.145Z,3.85
2022-09-21T06:05:15.351Z,3.65
2022-09-21T06:07:42.435Z,3.65
2022-09-21T06:10:11.447Z,3.95
2022-09-21T06:12:40.579Z,4.15
2022-09-21T06:15:10.508Z,4.07
2022-09-21T06:17:37.232Z,3.90
2022-09-21T06:20:04.381Z,3.90
2022-09-21T06:22:36.014Z,4.20
2022-09-21T06:25:02.841Z,3.58
2022-09-21T06:27:30.117Z,4.03
2022-09-21T06:29:57.274Z,4.72
2022-09-21T06:32:23.966Z,4.68
2022-09-21T06:34:50.686Z,5.13
2022-09-21T06:37:17.565Z,5.30
2022-09-21T06:39:44.255Z,5.35
2022-09-21T06:42:10.907Z,5.50
2022-09-21T06:44:37.695Z,5.63
2022-09-21T06:47:04.641Z,5.55
2022-09-21T06:49:31.876Z,5.40
2022-09-21T06:51:58.545Z,5.75
2022-09-21T06:54:25.736Z,5.28
2022-09-21T06:56:59.854Z,6.25
2022-09-21T06:59:26.821Z,6.20
2022-09-21T07:01:55.762Z,6.60
2022-09-21T07:04:25.334Z,6.18
2022-09-21T07:06:52.538Z,6.35
2022-09-21T07:12:07.962Z,5.95
2022-09-21T07:14:34.653Z,5.80
2022-09-21T07:17:02.316Z,6.05
2022-09-21T07:19:29.066Z,5.88
2022-09-21T07:21:58.314Z,5.22
2022-09-21T07:24:25.027Z,5.63
2022-09-21T07:26:52.931Z,5.45
2022-09-21T07:29:19.785Z,5.10
2022-09-21T07:31:46.522Z,5.80
2022-09-21T07:34:15.405Z,5.15
2022-09-21T07:36:44.575Z,5.13
2022-09-21T07:39:13.817Z,4.63
2022-09-21T07:41:40.485Z,4.03
2022-09-21T07:44:07.379Z,3.88
2022-09-21T07:46:34.352Z,4.38
2022-09-21T07:49:01.013Z,3.97
2022-09-21T07:51:29.822Z,3.97
2022-09-21T07:53:56.923Z,3.60
2022-09-21T07:56:24.612Z,3.05
2022-09-21T07:59:07.029Z,2.97
2022-09-21T08:01:49.650Z,2.58
2022-09-21T08:04:19.004Z,3.17
2022-09-21T08:06:48.579Z,3.30
2022-09-21T08:09:15.304Z,3.00
2022-09-21T08:11:46.244Z,2.38
2022-09-21T08:14:22.419Z,2.53
2022-09-21T08:16:52.924Z,1.88
2022-09-21T08:19:25.916Z,1.73
2022-09-21T08:21:57.251Z,1.70
2022-09-21T08:24:26.763Z,2.05
2022-09-21T08:26:57.774Z,1.92
2022-09-21T08:29:25.669Z,1.80
2022-09-21T08:31:53.711Z,1.70
2022-09-21T08:34:20.495Z,1.60
2022-09-21T08:36:49.703Z,1.63
2022-09-21T08:39:19.969Z,2.00
2022-09-21T08:42:04.790Z,1.83
2022-09-21T08:44:43.328Z,1.25
2022-09-21T08:47:13.168Z,1.65
2022-09-21T08:49:43.178Z,1.63
2022-09-21T08:52:16.813Z,1.60
2022-09-21T08:55:05.950Z,1.38
2022-09-21T08:57:34.450Z,1.58
2022-09-21T09:00:02.204Z,1.55
2022-09-21T09:02:50.286Z,1.50
2022-09-21T09:05:39.864Z,1.25
2022-09-21T09:08:52.317Z,1.50
2022-09-21T09:11:50.462Z,1.50
2022-09-21T09:14:32.215Z,1.20
2022-09-21T09:20:10.666Z,1.15
2022-09-21T09:22:43.734Z,1.30
2022-09-21T09:25:24.547Z,1.50
2022-09-21T09:27:55.751Z,1.27
2022-09-21T09:30:25.665Z,1.65
2022-09-21T09:33:09.928Z,1.65
2022-09-21T09:35:47.939Z,1.40
2022-09-21T09:38:27.840Z,1.60
2022-09-21T09:41:19.655Z,1.40
2022-09-21T09:47:09.292Z,1.45
2022-09-21T09:49:54.114Z,1.30
2022-09-21T09:52:20.836Z,1.20
2022-09-21T09:54:50.241Z,1.20
2022-09-21T09:57:26.752Z,1.40
2022-09-21T10:00:02.018Z,1.40
2022-09-21T10:02:29.850Z,1.42
2022-09-21T10:05:08.909Z,1.45
2022-09-21T10:07:40.930Z,1.38
2022-09-21T10:10:33.722Z,1.45
2022-09-21T10:13:06.289Z,1.08
2022-09-21T10:15:46.017Z,1.45
2022-09-21T10:18:18.436Z,1.17
2022-09-21T10:20:58.715Z,1.38
2022-09-21T10:23:26.344Z,1.80
2022-09-21T10:26:02.099Z,1.10
2022-09-21T10:28:29.522Z,1.38
2022-09-21T10:31:22.659Z,0.90
2022-09-21T10:34:14.352Z,1.20
2022-09-21T10:39:21.554Z,1.40
2022-09-21T10:41:54.588Z,1.40
2022-09-21T10:44:25.601Z,1.17
2022-09-21T10:46:53.094Z,1.10
2022-09-21T10:49:23.011Z,1.00
2022-09-21T10:51:52.649Z,0.95
2022-09-21T10:54:31.247Z,1.02
2022-09-21T10:57:03.929Z,0.93
2022-09-21T10:59:34.711Z,0.98
2022-09-21T11:02:22.224Z,1.13
2022-09-21T11:04:57.246Z,1.10
2022-09-21T11:07:51.000Z,1.10
2022-09-21T11:10:46.201Z,1.10
2022-09-21T11:13:35.729Z,1.10
2022-09-21T11:16:32.340Z,1.27
2022-09-21T11:19:06.064Z,1.13
2022-09-21T11:21:41.754Z,1.00
2022-09-21T11:24:35.580Z,0.80
2022-09-21T11:27:18.806Z,1.05
2022-09-21T11:30:03.112Z,1.08
2022-09-21T11:32:37.804Z,1.17
2022-09-21T11:35:26.858Z,1.10
2022-09-21T11:38:34.303Z,1.25
2022-09-21T11:41:09.399Z,1.10
2022-09-21T11:43:54.973Z,1.13
2022-09-21T11:46:40.126Z,1.45
2022-09-21T11:49:28.714Z,1.35
2022-09-21T11:52:16.500Z,0.98
2022-09-21T11:55:05.379Z,1.02
2022-09-21T11:57:54.877Z,0.98
2022-09-21T12:00:27.828Z,1.33
2022-09-21T12:03:32.138Z,0.90
2022-09-21T12:06:13.964Z,0.93
2022-09-21T12:08:58.599Z,0.82
2022-09-21T12:11:53.373Z,1.02
2022-09-21T12:14:33.685Z,1.17
2022-09-21T12:17:24.444Z,0.93
2022-09-21T12:20:11.179Z,0.97
2022-09-21T12:22:42.574Z,1.00
2022-09-21T12:27:58.411Z,0.85
2022-09-21T12:30:28.573Z,1.00
2022-09-21T12:33:06.502Z,1.00
2022-09-21T12:35:43.942Z,0.90
2022-09-21T12:38:35.271Z,1.42
2022-09-21T12:41:17.022Z,1.08
2022-09-21T12:43:46.630Z,1.20
2022-09-21T12:46:40.638Z,0.90
2022-09-21T12:49:29.756Z,0.95
2022-09-21T12:52:03.267Z,1.30
2022-09-21T12:54:54.283Z,1.13
2022-09-21T12:58:14.110Z,1.42
2022-09-21T13:00:54.396Z,1.10
2022-09-21T13:04:05.689Z,1.38
2022-09-21T13:06:51.936Z,0.85
2022-09-21T13:09:20.953Z,1.25
2022-09-21T13:12:00.872Z,1.33
2022-09-21T13:14:34.728Z,1.10
2022-09-21T13:17:03.413Z,1.20
2022-09-21T13:19:33.556Z,1.00
2022-09-21T13:22:19.916Z,1.20
2022-09-21T13:25:17.957Z,0.98
2022-09-21T13:28:01.737Z,0.90
2022-09-21T13:30:39.190Z,1.10
2022-09-21T13:33:25.873Z,0.85
2022-09-21T13:36:07.057Z,1.13
2022-09-21T13:38:45.558Z,0.95
2022-09-21T13:41:25.890Z,1.13
2022-09-21T13:44:06.502Z,1.10
2022-09-21T13:46:36.771Z,1.20
2022-09-21T13:49:15.495Z,1.10
2022-09-21T13:52:20.739Z,1.00
2022-09-21T13:55:20.622Z,1.15
2022-09-21T13:57:52.179Z,0.95
2022-09-21T14:00:19.920Z,1.40
2022-09-21T14:02:57.087Z,1.20
2022-09-21T14:05:43.548Z,0.95
2022-09-21T14:08:16.331Z,1.15
2022-09-21T14:11:08.688Z,1.20
2022-09-21T14:13:43.784Z,1.02
2022-09-21T14:16:41.706Z,1.23
2022-09-21T14:19:17.805Z,1.35
2022-09-21T14:22:03.261Z,1.08
2022-09-21T14:24:38.930Z,1.45
2022-09-21T14:27:34.524Z,1.20
2022-09-21T14:30:24.691Z,1.33
2022-09-21T14:33:00.858Z,1.10
2022-09-21T14:35:40.089Z,1.20
2022-09-21T14:38:41.718Z,1.00
2022-09-21T14:43:39.761Z,1.42
2022-09-21T14:46:17.109Z,1.00
2022-09-21T14:49:07.697Z,1.30
2022-09-21T14:51:45.447Z,1.00
2022-09-21T14:54:33.973Z,1.20
2022-09-21T14:57:20.759Z,1.10
2022-09-21T15:00:14.211Z,1.08
2022-09-21T15:02:44.389Z,1.23
2022-09-21T15:05:18.383Z,1.27
2022-09-21T15:08:21.228Z,1.20
2022-09-21T15:10:57.922Z,1.00
2022-09-21T15:13:36.479Z,1.30
2022-09-21T15:16:28.190Z,1.08
2022-09-21T15:19:20.647Z,1.38
2022-09-21T15:21:50.024Z,1.10
2022-09-21T15:24:22.000Z,0.93
2022-09-21T15:26:51.589Z,1.00
2022-09-21T15:29:28.424Z,1.45
2022-09-21T15:31:59.099Z,1.08
2022-09-21T15:34:26.041Z,1.15
2022-09-21T15:36:53.125Z,1.10
2022-09-21T15:39:31.089Z,1.10
2022-09-21T15:42:09.908Z,1.15
2022-09-21T15:44:39.354Z,1.00
2022-09-21T15:47:12.800Z,1.20
2022-09-21T15:49:42.266Z,0.90
2022-09-21T15:52:24.091Z,1.40
2022-09-21T15:55:07.238Z,1.00
2022-09-21T15:57:41.433Z,1.20
2022-09-21T16:00:22.285Z,1.30
2022-09-21T16:03:04.416Z,1.60
2022-09-21T16:05:44.179Z,0.93
2022-09-21T16:08:34.211Z,1.13
2022-09-21T16:11:14.870Z,1.10
2022-09-21T16:14:21.260Z,1.00
2022-09-21T16:17:19.798Z,1.40
2022-09-21T16:19:54.565Z,0.88
2022-09-21T16:22:24.495Z,1.10
2022-09-21T16:24:55.229Z,1.20
2022-09-21T16:27:31.214Z,1.30
2022-09-21T16:30:01.088Z,1.08
2022-09-21T16:32:32.820Z,1.00
2022-09-21T16:35:24.864Z,0.93
2022-09-21T16:37:51.885Z,0.98
2022-09-21T16:40:21.668Z,1.13
2022-09-21T16:42:48.413Z,0.90
2022-09-21T16:45:25.894Z,1.10
2022-09-21T16:47:54.092Z,1.27
2022-09-21T16:50:20.753Z,1.10
2022-09-21T16:52:51.479Z,1.05
2022-09-21T16:55:19.490Z,1.15
2022-09-21T16:57:48.859Z,1.10
2022-09-21T17:00:22.046Z,1.20
2022-09-21T17:02:52.029Z,1.10
2022-09-21T17:05:21.432Z,1.05
2022-09-21T17:07:56.334Z,1.15
2022-09-21T17:10:29.060Z,1.10
2022-09-21T17:12:56.724Z,0.90
2022-09-21T17:15:28.422Z,1.40
2022-09-21T17:17:58.163Z,1.00
2022-09-21T17:20:37.180Z,1.17
2022-09-21T17:23:07.170Z,1.70
2022-09-21T17:25:35.413Z,1.20
2022-09-21T17:28:04.237Z,1.25
2022-09-21T17:30:34.816Z,1.30
2022-09-21T17:33:01.659Z,1.10
2022-09-21T17:35:38.951Z,1.60
2022-09-21T17:38:10.027Z,1.40
2022-09-21T17:40:44.782Z,1.60
2022-09-21T17:43:15.518Z,1.67
2022-09-21T17:45:53.397Z,1.30
2022-09-21T17:48:22.847Z,1.35
2022-09-21T17:50:52.242Z,1.35
2022-09-21T17:53:34.573Z,1.30
2022-09-21T17:56:37.545Z,1.55
2022-09-21T17:59:09.565Z,1.67
2022-09-21T18:01:40.856Z,1.60
2022-09-21T18:04:10.941Z,1.95
2022-09-21T18:06:38.097Z,1.98
2022-09-21T18:09:05.598Z,1.80
2022-09-21T18:11:50.093Z,2.03
2022-09-21T18:14:22.824Z,2.00
2022-09-21T18:17:04.571Z,1.58
2022-09-21T18:22:13.839Z,1.90
2022-09-21T18:24:41.099Z,1.77
2022-09-21T18:27:12.892Z,1.45
2022-09-21T18:29:43.022Z,2.20
2022-09-21T18:32:34.895Z,1.73
2022-09-21T18:38:15.422Z,1.73
2022-09-21T18:41:16.057Z,1.83
2022-09-21T18:43:52.653Z,1.80
2022-09-21T18:46:51.110Z,1.50
2022-09-21T18:49:43.247Z,2.33
2022-09-21T18:52:35.972Z,1.85
2022-09-21T18:55:27.257Z,2.40
2022-09-21T18:57:58.398Z,2.30
2022-09-21T19:00:34.735Z,2.55
2022-09-21T19:03:17.075Z,2.50
2022-09-21T19:05:54.937Z,2.58
2022-09-21T19:08:37.565Z,2.75
2022-09-21T19:11:19.518Z,2.60
2022-09-21T19:13:56.085Z,2.33
2022-09-21T19:16:38.102Z,2.50
2022-09-21T19:19:29.998Z,2.55
2022-09-21T19:25:10.259Z,2.60
2022-09-21T19:27:52.727Z,2.40
2022-09-21T19:30:19.629Z,2.85
2022-09-21T19:32:49.013Z,2.85
2022-09-21T19:35:22.556Z,3.22
2022-09-21T19:37:51.899Z,4.38
2022-09-21T19:40:21.246Z,4.03
2022-09-21T19:43:20.720Z,4.55
2022-09-21T19:46:34.799Z,4.15
2022-09-21T19:49:20.846Z,4.18
2022-09-21T19:51:51.367Z,4.30
2022-09-21T19:54:37.723Z,4.47
2022-09-21T19:57:33.135Z,4.82
2022-09-21T20:00:06.306Z,4.55
2022-09-21T20:02:53.259Z,4.47
2022-09-21T20:05:45.750Z,4.47
2022-09-21T20:08:24.840Z,4.28
2022-09-21T20:11:01.835Z,4.70
2022-09-21T20:13:59.853Z,4.60
2022-09-21T20:16:53.232Z,4.75
2022-09-21T20:19:51.256Z,5.13
2022-09-21T20:22:26.559Z,5.63
2022-09-21T20:25:08.323Z,5.20
2022-09-21T20:30:11.304Z,5.00
2022-09-21T20:32:40.769Z,5.13
2022-09-21T20:35:19.029Z,5.35
2022-09-21T20:37:46.231Z,5.35
2022-09-21T20:40:14.112Z,4.82
2022-09-21T20:42:41.331Z,4.47
2022-09-21T20:45:10.165Z,5.75
2022-09-21T20:47:37.367Z,5.22
2022-09-21T20:50:05.327Z,5.45
2022-09-21T20:52:32.624Z,5.40
2022-09-21T20:55:01.827Z,5.57
2022-09-21T20:57:28.684Z,5.38
2022-09-21T20:59:55.380Z,4.93
2022-09-21T21:02:22.062Z,4.93
2022-09-21T21:04:54.073Z,5.00
2022-09-21T21:07:20.764Z,5.35
2022-09-21T21:09:47.468Z,5.07
2022-09-21T21:12:16.628Z,4.70
2022-09-21T21:14:45.344Z,4.95
2022-09-21T21:17:15.821Z,5.05
2022-09-21T21:19:43.078Z,4.68
2022-09-21T21:22:11.759Z,4.70
2022-09-21T21:24:41.326Z,4.40
2022-09-21T21:27:11.472Z,4.30
2022-09-21T21:29:38.287Z,4.85
2022-09-21T21:32:05.410Z,4.70
2022-09-21T21:34:32.206Z,4.43
2022-09-21T21:37:01.110Z,5.22
2022-09-21T21:39:27.767Z,4.50
2022-09-21T21:41:54.876Z,4.50
2022-09-21T21:44:22.205Z,4.75
2022-09-21T21:46:50.920Z,4.72
2022-09-21T21:49:17.859Z,4.90
2022-09-21T21:51:44.803Z,5.20
2022-09-21T21:54:11.905Z,4.75
2022-09-21T21:56:38.650Z,4.88
2022-09-21T21:59:05.771Z,5.43
2022-09-21T22:01:32.575Z,5.10
2022-09-21T22:04:01.568Z,5.80
2022-09-21T22:06:33.475Z,5.38
2022-09-21T22:09:00.739Z,5.40
2022-09-21T22:11:29.045Z,5.10
2022-09-21T22:13:55.993Z,5.78
2022-09-21T22:16:24.787Z,5.15
2022-09-21T22:18:54.909Z,5.35
2022-09-21T22:21:28.059Z,4.55
2022-09-21T22:23:59.203Z,5.15
2022-09-21T22:26:28.077Z,5.05
2022-09-21T22:29:00.178Z,4.68
2022-09-21T22:31:30.988Z,4.80
2022-09-21T22:33:59.518Z,4.60
2022-09-21T22:36:30.756Z,4.90
2022-09-21T22:38:58.301Z,4.82
2022-09-21T22:41:27.570Z,4.80
2022-09-21T22:43:55.740Z,5.25
2022-09-21T22:46:24.083Z,4.53
2022-09-21T22:48:51.108Z,4.93
2022-09-21T22:51:19.733Z,4.57
2022-09-21T22:53:47.768Z,4.63
2022-09-21T22:56:15.967Z,5.10
2022-09-21T22:58:51.019Z,4.57
2022-09-21T23:01:25.447Z,4.78
2022-09-21T23:03:55.430Z,4.53
2022-09-21T23:06:26.157Z,4.55
2022-09-21T23:08:55.188Z,5.20
2022-09-21T23:11:31.036Z,4.82
2022-09-21T23:13:59.060Z,4.75
2022-09-21T23:16:28.089Z,4.70
2022-09-21T23:18:55.903Z,4.57
2022-09-21T23:21:24.657Z,4.63
2022-09-21T23:23:59.927Z,4.68
2022-09-21T23:26:28.556Z,4.93
2022-09-21T23:28:57.692Z,4.53
2022-09-21T23:31:29.016Z,4.63
2022-09-21T23:33:58.174Z,4.90
2022-09-21T23:36:28.085Z,4.80
2022-09-21T23:38:55.085Z,4.82
2022-09-21T23:41:30.831Z,4.30
2022-09-21T23:43:58.465Z,3.92
2022-09-21T23:46:31.645Z,4.32
2022-09-21T23:48:59.625Z,4.28
2022-09-21T23:51:27.234Z,4.15
2022-09-21T23:53:57.070Z,4.30
2022-09-21T23:56:24.220Z,3.85
2022-09-21T23:58:51.746Z,3.78
